sensor_id;sensor_type;location;lat;lon;timestamp;P1;durP1;ratioP1;P2;durP2;ratioP2
3747;SDS011;1889;50.058;8.688;2023-10-09T00:00:13;4.50;;;3.58;;
3747;SDS011;1889;50.058;8.688;2023-10-09T00:03:01;4.15;;;3.27;;
3747;SDS011;1889;50.058;8.688;2023-10-09T00:05:31;4.95;;;3.75;;
3747;SDS011;1889;50.058;8.688;2023-10-09T00:08:08;4.03;;;3.12;;
3747;SDS011;1889;50.058;8.688;2023-10-09T00:10:38;4.22;;;3.08;;
3747;SDS011;1889;50.058;8.688;2023-10-09T00:13:15;5.28;;;2.87;;
3747;SDS011;1889;50.058;8.688;2023-10-09T00:15:45;5.28;;;2.90;;
3747;SDS011;1889;50.058;8.688;2023-10-09T00:18:16;5.40;;;3.15;;
3747;SDS011;1889;50.058;8.688;2023-10-09T00:20:48;7.20;;;3.58;;
3747;SDS011;1889;50.058;8.688;2023-10-09T00:23:18;4.45;;;3.10;;
3747;SDS011;1889;50.058;8.688;2023-10-09T00:25:49;5.08;;;3.17;;
3747;SDS011;1889;50.058;8.688;2023-10-09T00:28:21;5.10;;;3.50;;
3747;SDS011;1889;50.058;8.688;2023-10-09T00:30:51;4.22;;;3.37;;
3747;SDS011;1889;50.058;8.688;2023-10-09T00:33:20;11.45;;;3.75;;
3747;SDS011;1889;50.058;8.688;2023-10-09T00:35:50;6.55;;;3.70;;
3747;SDS011;1889;50.058;8.688;2023-10-09T00:38:22;4.53;;;3.22;;
3747;SDS011;1889;50.058;8.688;2023-10-09T00:40:53;3.58;;;3.12;;
3747;SDS011;1889;50.058;8.688;2023-10-09T00:43:27;5.50;;;3.47;;
3747;SDS011;1889;50.058;8.688;2023-10-09T00:45:57;6.95;;;3.50;;
3747;SDS011;1889;50.058;8.688;2023-10-09T00:48:30;8.28;;;3.75;;
3747;SDS011;1889;50.058;8.688;2023-10-09T00:51:01;6.25;;;3.05;;
3747;SDS011;1889;50.058;8.688;2023-10-09T00:53:32;5.92;;;3.80;;
3747;SDS011;1889;50.058;8.688;2023-10-09T00:56:01;7.35;;;3.60;;
3747;SDS011;1889;50.058;8.688;2023-10-09T00:58:34;5.87;;;3.22;;
3747;SDS011;1889;50.058;8.688;2023-10-09T01:01:03;4.47;;;3.35;;
3747;SDS011;1889;50.058;8.688;2023-10-09T01:03:34;3.50;;;3.17;;
3747;SDS011;1889;50.058;8.688;2023-10-09T01:06:05;6.97;;;3.35;;
3747;SDS011;1889;50.058;8.688;2023-10-09T01:08:39;5.75;;;3.45;;
3747;SDS011;1889;50.058;8.688;2023-10-09T01:11:14;6.50;;;3.72;;
3747;SDS011;1889;50.058;8.688;2023-10-09T01:13:49;10.65;;;3.72;;
3747;SDS011;1889;50.058;8.688;2023-10-09T01:16:21;4.17;;;3.37;;
3747;SDS011;1889;50.058;8.688;2023-10-09T01:18:52;4.22;;;3.75;;
3747;SDS011;1889;50.058;8.688;2023-10-09T01:21:24;6.95;;;3.42;;
3747;SDS011;1889;50.058;8.688;2023-10-09T01:23:54;6.90;;;4.10;;
3747;SDS011;1889;50.058;8.688;2023-10-09T01:26:36;5.33;;;3.22;;
3747;SDS011;1889;50.058;8.688;2023-10-09T01:29:15;3.95;;;3.30;;
3747;SDS011;1889;50.058;8.688;2023-10-09T01:31:49;4.47;;;3.42;;
3747;SDS011;1889;50.058;8.688;2023-10-09T01:34:29;5.58;;;3.30;;
3747;SDS011;1889;50.058;8.688;2023-10-09T01:37:22;4.20;;;3.30;;
3747;SDS011;1889;50.058;8.688;2023-10-09T01:39:53;5.33;;;3.15;;
3747;SDS011;1889;50.058;8.688;2023-10-09T01:42:27;5.55;;;3.42;;
3747;SDS011;1889;50.058;8.688;2023-10-09T01:45:04;5.62;;;3.30;;
3747;SDS011;1889;50.058;8.688;2023-10-09T01:47:47;4.22;;;3.67;;
3747;SDS011;1889;50.058;8.688;2023-10-09T01:50:21;4.95;;;3.30;;
3747;SDS011;1889;50.058;8.688;2023-10-09T01:52:52;5.37;;;3.75;;
3747;SDS011;1889;50.058;8.688;2023-10-09T01:55:22;5.72;;;3.92;;
3747;SDS011;1889;50.058;8.688;2023-10-09T01:58:06;4.22;;;3.12;;
3747;SDS011;1889;50.058;8.688;2023-10-09T02:00:52;4.00;;;3.35;;
3747;SDS011;1889;50.058;8.688;2023-10-09T02:03:22;9.95;;;3.67;;
3747;SDS011;1889;50.058;8.688;2023-10-09T02:05:53;6.28;;;3.52;;
3747;SDS011;1889;50.058;8.688;2023-10-09T02:08:24;5.37;;;3.50;;
3747;SDS011;1889;50.058;8.688;2023-10-09T02:10:55;4.47;;;3.25;;
3747;SDS011;1889;50.058;8.688;2023-10-09T02:13:25;5.62;;;3.72;;
3747;SDS011;1889;50.058;8.688;2023-10-09T02:15:57;6.80;;;3.75;;
3747;SDS011;1889;50.058;8.688;2023-10-09T02:18:28;6.60;;;3.67;;
3747;SDS011;1889;50.058;8.688;2023-10-09T02:23:35;4.67;;;3.42;;
3747;SDS011;1889;50.058;8.688;2023-10-09T02:26:08;7.15;;;3.90;;
3747;SDS011;1889;50.058;8.688;2023-10-09T02:28:40;8.45;;;3.77;;
3747;SDS011;1889;50.058;8.688;2023-10-09T02:31:11;8.58;;;3.42;;
3747;SDS011;1889;50.058;8.688;2023-10-09T02:33:41;5.97;;;3.70;;
3747;SDS011;1889;50.058;8.688;2023-10-09T02:36:11;4.35;;;3.67;;
3747;SDS011;1889;50.058;8.688;2023-10-09T02:38:41;4.15;;;3.37;;
3747;SDS011;1889;50.058;8.688;2023-10-09T02:41:10;5.08;;;3.87;;
3747;SDS011;1889;50.058;8.688;2023-10-09T02:43:41;5.28;;;3.83;;
3747;SDS011;1889;50.058;8.688;2023-10-09T02:46:18;3.50;;;3.15;;
3747;SDS011;1889;50.058;8.688;2023-10-09T02:49:01;5.80;;;3.75;;
3747;SDS011;1889;50.058;8.688;2023-10-09T02:51:32;5.28;;;3.60;;
3747;SDS011;1889;50.058;8.688;2023-10-09T02:54:03;7.35;;;3.55;;
3747;SDS011;1889;50.058;8.688;2023-10-09T02:56:37;3.50;;;3.12;;
3747;SDS011;1889;50.058;8.688;2023-10-09T02:59:14;4.62;;;3.08;;
3747;SDS011;1889;50.058;8.688;2023-10-09T03:01:43;6.50;;;4.00;;
3747;SDS011;1889;50.058;8.688;2023-10-09T03:04:13;5.70;;;3.40;;
3747;SDS011;1889;50.058;8.688;2023-10-09T03:06:42;3.85;;;3.45;;
3747;SDS011;1889;50.058;8.688;2023-10-09T03:09:13;6.45;;;4.45;;
3747;SDS011;1889;50.058;8.688;2023-10-09T03:11:49;7.33;;;3.75;;
3747;SDS011;1889;50.058;8.688;2023-10-09T03:14:22;5.03;;;3.52;;
3747;SDS011;1889;50.058;8.688;2023-10-09T03:16:56;5.40;;;3.65;;
3747;SDS011;1889;50.058;8.688;2023-10-09T03:19:27;5.85;;;3.40;;
3747;SDS011;1889;50.058;8.688;2023-10-09T03:21:57;6.47;;;3.77;;
3747;SDS011;1889;50.058;8.688;2023-10-09T03:24:26;5.83;;;3.92;;
3747;SDS011;1889;50.058;8.688;2023-10-09T03:26:56;7.37;;;3.45;;
3747;SDS011;1889;50.058;8.688;2023-10-09T03:29:25;5.53;;;3.52;;
3747;SDS011;1889;50.058;8.688;2023-10-09T03:31:55;4.28;;;3.87;;
3747;SDS011;1889;50.058;8.688;2023-10-09T03:34:24;6.67;;;3.98;;
3747;SDS011;1889;50.058;8.688;2023-10-09T03:36:53;3.70;;;3.20;;
3747;SDS011;1889;50.058;8.688;2023-10-09T03:39:32;4.03;;;3.20;;
3747;SDS011;1889;50.058;8.688;2023-10-09T03:42:12;6.78;;;4.60;;
3747;SDS011;1889;50.058;8.688;2023-10-09T03:44:43;8.78;;;5.10;;
3747;SDS011;1889;50.058;8.688;2023-10-09T03:47:14;7.08;;;4.55;;
3747;SDS011;1889;50.058;8.688;2023-10-09T03:49:44;7.00;;;4.10;;
3747;SDS011;1889;50.058;8.688;2023-10-09T03:52:13;4.72;;;4.20;;
3747;SDS011;1889;50.058;8.688;2023-10-09T03:54:44;5.75;;;4.65;;
3747;SDS011;1889;50.058;8.688;2023-10-09T03:57:17;10.58;;;5.53;;
3747;SDS011;1889;50.058;8.688;2023-10-09T03:59:46;6.72;;;4.15;;
3747;SDS011;1889;50.058;8.688;2023-10-09T04:02:16;10.45;;;4.87;;
3747;SDS011;1889;50.058;8.688;2023-10-09T04:04:45;9.85;;;5.05;;
3747;SDS011;1889;50.058;8.688;2023-10-09T04:07:16;7.92;;;5.22;;
3747;SDS011;1889;50.058;8.688;2023-10-09T04:09:46;5.53;;;4.05;;
3747;SDS011;1889;50.058;8.688;2023-10-09T04:12:17;6.67;;;3.62;;
3747;SDS011;1889;50.058;8.688;2023-10-09T04:14:50;5.97;;;4.05;;
3747;SDS011;1889;50.058;8.688;2023-10-09T04:17:24;7.12;;;4.53;;
3747;SDS011;1889;50.058;8.688;2023-10-09T04:20:02;5.75;;;4.45;;
3747;SDS011;1889;50.058;8.688;2023-10-09T04:22:49;6.15;;;4.33;;
3747;SDS011;1889;50.058;8.688;2023-10-09T04:25:19;6.83;;;4.37;;
3747;SDS011;1889;50.058;8.688;2023-10-09T04:27:53;7.30;;;4.25;;
3747;SDS011;1889;50.058;8.688;2023-10-09T04:30:31;7.20;;;4.47;;
3747;SDS011;1889;50.058;8.688;2023-10-09T04:33:02;10.68;;;4.87;;
3747;SDS011;1889;50.058;8.688;2023-10-09T04:35:33;8.83;;;5.10;;
3747;SDS011;1889;50.058;8.688;2023-10-09T04:38:04;7.37;;;4.97;;
3747;SDS011;1889;50.058;8.688;2023-10-09T04:40:34;9.05;;;5.15;;
3747;SDS011;1889;50.058;8.688;2023-10-09T04:43:10;9.75;;;5.40;;
3747;SDS011;1889;50.058;8.688;2023-10-09T04:45:41;7.80;;;4.55;;
3747;SDS011;1889;50.058;8.688;2023-10-09T04:48:28;11.43;;;5.40;;
3747;SDS011;1889;50.058;8.688;2023-10-09T04:51:00;9.23;;;5.17;;
3747;SDS011;1889;50.058;8.688;2023-10-09T04:53:47;6.78;;;4.87;;
3747;SDS011;1889;50.058;8.688;2023-10-09T04:56:34;9.93;;;5.58;;
3747;SDS011;1889;50.058;8.688;2023-10-09T04:59:05;9.35;;;5.45;;
3747;SDS011;1889;50.058;8.688;2023-10-09T05:01:35;7.47;;;5.42;;
3747;SDS011;1889;50.058;8.688;2023-10-09T05:04:06;9.55;;;5.20;;
3747;SDS011;1889;50.058;8.688;2023-10-09T05:06:37;8.78;;;5.53;;
3747;SDS011;1889;50.058;8.688;2023-10-09T05:09:13;11.22;;;5.60;;
3747;SDS011;1889;50.058;8.688;2023-10-09T05:11:42;7.87;;;4.87;;
3747;SDS011;1889;50.058;8.688;2023-10-09T05:14:21;7.75;;;5.25;;
3747;SDS011;1889;50.058;8.688;2023-10-09T05:16:58;10.28;;;5.47;;
3747;SDS011;1889;50.058;8.688;2023-10-09T05:19:29;9.78;;;5.90;;
3747;SDS011;1889;50.058;8.688;2023-10-09T05:22:03;10.08;;;6.05;;
3747;SDS011;1889;50.058;8.688;2023-10-09T05:24:34;9.93;;;5.92;;
3747;SDS011;1889;50.058;8.688;2023-10-09T05:27:13;7.42;;;5.15;;
3747;SDS011;1889;50.058;8.688;2023-10-09T05:29:46;13.35;;;5.90;;
3747;SDS011;1889;50.058;8.688;2023-10-09T05:32:27;11.30;;;5.72;;
3747;SDS011;1889;50.058;8.688;2023-10-09T05:34:58;10.75;;;5.40;;
3747;SDS011;1889;50.058;8.688;2023-10-09T05:37:29;8.10;;;5.33;;
3747;SDS011;1889;50.058;8.688;2023-10-09T05:40:02;11.25;;;5.42;;
3747;SDS011;1889;50.058;8.688;2023-10-09T05:42:46;10.80;;;5.35;;
3747;SDS011;1889;50.058;8.688;2023-10-09T05:45:17;7.80;;;5.35;;
3747;SDS011;1889;50.058;8.688;2023-10-09T05:47:54;10.18;;;5.83;;
3747;SDS011;1889;50.058;8.688;2023-10-09T05:50:44;9.58;;;5.75;;
3747;SDS011;1889;50.058;8.688;2023-10-09T05:53:18;9.10;;;5.35;;
3747;SDS011;1889;50.058;8.688;2023-10-09T05:55:48;8.85;;;5.70;;
3747;SDS011;1889;50.058;8.688;2023-10-09T05:58:25;9.60;;;5.85;;
3747;SDS011;1889;50.058;8.688;2023-10-09T06:01:12;8.05;;;5.60;;
3747;SDS011;1889;50.058;8.688;2023-10-09T06:03:59;10.18;;;6.08;;
3747;SDS011;1889;50.058;8.688;2023-10-09T06:06:45;13.78;;;5.55;;
3747;SDS011;1889;50.058;8.688;2023-10-09T06:09:16;13.62;;;6.08;;
3747;SDS011;1889;50.058;8.688;2023-10-09T06:11:48;7.03;;;5.08;;
3747;SDS011;1889;50.058;8.688;2023-10-09T06:14:21;8.23;;;5.08;;
3747;SDS011;1889;50.058;8.688;2023-10-09T06:16:59;9.70;;;5.03;;
3747;SDS011;1889;50.058;8.688;2023-10-09T06:19:28;12.03;;;6.15;;
3747;SDS011;1889;50.058;8.688;2023-10-09T06:21:59;10.35;;;5.70;;
3747;SDS011;1889;50.058;8.688;2023-10-09T06:24:42;10.93;;;5.15;;
3747;SDS011;1889;50.058;8.688;2023-10-09T06:27:22;10.20;;;5.50;;
3747;SDS011;1889;50.058;8.688;2023-10-09T06:29:55;7.55;;;5.83;;
3747;SDS011;1889;50.058;8.688;2023-10-09T06:32:43;10.93;;;6.28;;
3747;SDS011;1889;50.058;8.688;2023-10-09T06:35:20;15.05;;;6.10;;
3747;SDS011;1889;50.058;8.688;2023-10-09T06:37:50;11.55;;;5.90;;
3747;SDS011;1889;50.058;8.688;2023-10-09T06:40:31;26.90;;;6.03;;
3747;SDS011;1889;50.058;8.688;2023-10-09T06:43:06;9.95;;;5.85;;
3747;SDS011;1889;50.058;8.688;2023-10-09T06:45:37;10.48;;;5.20;;
3747;SDS011;1889;50.058;8.688;2023-10-09T06:48:13;12.43;;;5.78;;
3747;SDS011;1889;50.058;8.688;2023-10-09T06:51:04;9.00;;;5.35;;
3747;SDS011;1889;50.058;8.688;2023-10-09T06:53:56;7.65;;;5.10;;
3747;SDS011;1889;50.058;8.688;2023-10-09T06:56:28;9.23;;;5.20;;
3747;SDS011;1889;50.058;8.688;2023-10-09T06:59:03;10.43;;;5.28;;
3747;SDS011;1889;50.058;8.688;2023-10-09T07:01:49;8.55;;;5.10;;
3747;SDS011;1889;50.058;8.688;2023-10-09T07:04:38;7.45;;;5.25;;
3747;SDS011;1889;50.058;8.688;2023-10-09T07:07:09;9.70;;;5.12;;
3747;SDS011;1889;50.058;8.688;2023-10-09T07:09:40;9.28;;;5.40;;
3747;SDS011;1889;50.058;8.688;2023-10-09T07:12:27;11.57;;;4.97;;
3747;SDS011;1889;50.058;8.688;2023-10-09T07:14:59;13.35;;;5.28;;
3747;SDS011;1889;50.058;8.688;2023-10-09T07:17:31;11.83;;;5.45;;
3747;SDS011;1889;50.058;8.688;2023-10-09T07:20:05;13.20;;;6.15;;
3747;SDS011;1889;50.058;8.688;2023-10-09T07:22:39;13.58;;;5.67;;
3747;SDS011;1889;50.058;8.688;2023-10-09T07:25:11;15.85;;;4.90;;
3747;SDS011;1889;50.058;8.688;2023-10-09T07:27:44;12.43;;;4.47;;
3747;SDS011;1889;50.058;8.688;2023-10-09T07:30:19;7.37;;;4.83;;
3747;SDS011;1889;50.058;8.688;2023-10-09T07:33:03;9.48;;;5.35;;
3747;SDS011;1889;50.058;8.688;2023-10-09T07:35:41;11.30;;;4.92;;
3747;SDS011;1889;50.058;8.688;2023-10-09T07:38:18;13.05;;;5.00;;
3747;SDS011;1889;50.058;8.688;2023-10-09T07:41:00;10.65;;;4.80;;
3747;SDS011;1889;50.058;8.688;2023-10-09T07:43:35;10.32;;;5.10;;
3747;SDS011;1889;50.058;8.688;2023-10-09T07:46:10;11.28;;;5.42;;
3747;SDS011;1889;50.058;8.688;2023-10-09T07:49:00;10.35;;;5.03;;
3747;SDS011;1889;50.058;8.688;2023-10-09T07:51:40;12.35;;;4.62;;
3747;SDS011;1889;50.058;8.688;2023-10-09T07:54:11;12.15;;;5.55;;
3747;SDS011;1889;50.058;8.688;2023-10-09T07:56:45;14.38;;;5.40;;
3747;SDS011;1889;50.058;8.688;2023-10-09T07:59:14;10.93;;;5.62;;
3747;SDS011;1889;50.058;8.688;2023-10-09T08:01:48;9.43;;;4.55;;
3747;SDS011;1889;50.058;8.688;2023-10-09T08:04:22;10.63;;;4.65;;
3747;SDS011;1889;50.058;8.688;2023-10-09T08:06:53;8.78;;;4.75;;
3747;SDS011;1889;50.058;8.688;2023-10-09T08:09:24;11.90;;;4.78;;
3747;SDS011;1889;50.058;8.688;2023-10-09T08:11:58;16.87;;;5.03;;
3747;SDS011;1889;50.058;8.688;2023-10-09T08:14:42;9.03;;;4.80;;
3747;SDS011;1889;50.058;8.688;2023-10-09T08:17:13;9.13;;;4.92;;
3747;SDS011;1889;50.058;8.688;2023-10-09T08:19:49;12.37;;;5.30;;
3747;SDS011;1889;50.058;8.688;2023-10-09T08:22:22;7.80;;;4.47;;
3747;SDS011;1889;50.058;8.688;2023-10-09T08:24:54;11.12;;;5.47;;
3747;SDS011;1889;50.058;8.688;2023-10-09T08:27:24;9.05;;;5.05;;
3747;SDS011;1889;50.058;8.688;2023-10-09T08:30:02;16.05;;;6.25;;
3747;SDS011;1889;50.058;8.688;2023-10-09T08:32:40;11.48;;;5.20;;
3747;SDS011;1889;50.058;8.688;2023-10-09T08:35:10;12.10;;;5.05;;
3747;SDS011;1889;50.058;8.688;2023-10-09T08:37:58;8.25;;;4.47;;
3747;SDS011;1889;50.058;8.688;2023-10-09T08:40:38;10.75;;;4.58;;
3747;SDS011;1889;50.058;8.688;2023-10-09T08:43:14;8.83;;;4.50;;
3747;SDS011;1889;50.058;8.688;2023-10-09T08:45:48;10.43;;;4.37;;
3747;SDS011;1889;50.058;8.688;2023-10-09T08:48:30;10.80;;;5.30;;
3747;SDS011;1889;50.058;8.688;2023-10-09T08:51:02;7.87;;;4.87;;
3747;SDS011;1889;50.058;8.688;2023-10-09T08:53:33;11.43;;;4.70;;
3747;SDS011;1889;50.058;8.688;2023-10-09T08:56:03;8.95;;;4.47;;
3747;SDS011;1889;50.058;8.688;2023-10-09T08:58:35;9.68;;;4.90;;
3747;SDS011;1889;50.058;8.688;2023-10-09T09:01:07;11.40;;;4.93;;
3747;SDS011;1889;50.058;8.688;2023-10-09T09:03:39;10.78;;;5.03;;
3747;SDS011;1889;50.058;8.688;2023-10-09T09:06:11;10.43;;;5.33;;
3747;SDS011;1889;50.058;8.688;2023-10-09T09:08:42;11.05;;;5.17;;
3747;SDS011;1889;50.058;8.688;2023-10-09T09:11:14;7.65;;;4.40;;
3747;SDS011;1889;50.058;8.688;2023-10-09T09:16:36;11.83;;;4.90;;
3747;SDS011;1889;50.058;8.688;2023-10-09T09:19:10;9.90;;;4.80;;
3747;SDS011;1889;50.058;8.688;2023-10-09T09:21:50;10.18;;;4.50;;
3747;SDS011;1889;50.058;8.688;2023-10-09T09:24:26;12.25;;;4.90;;
3747;SDS011;1889;50.058;8.688;2023-10-09T09:27:00;9.50;;;4.70;;
3747;SDS011;1889;50.058;8.688;2023-10-09T09:29:40;15.10;;;5.53;;
3747;SDS011;1889;50.058;8.688;2023-10-09T09:32:11;9.88;;;4.37;;
3747;SDS011;1889;50.058;8.688;2023-10-09T09:34:46;10.43;;;4.05;;
3747;SDS011;1889;50.058;8.688;2023-10-09T09:37:20;10.72;;;4.92;;
3747;SDS011;1889;50.058;8.688;2023-10-09T09:39:52;8.93;;;4.90;;
3747;SDS011;1889;50.058;8.688;2023-10-09T09:42:23;9.75;;;5.03;;
3747;SDS011;1889;50.058;8.688;2023-10-09T09:44:53;12.07;;;4.62;;
3747;SDS011;1889;50.058;8.688;2023-10-09T09:47:24;11.67;;;5.07;;
3747;SDS011;1889;50.058;8.688;2023-10-09T09:49:55;9.55;;;4.95;;
3747;SDS011;1889;50.058;8.688;2023-10-09T09:52:30;9.55;;;4.55;;
3747;SDS011;1889;50.058;8.688;2023-10-09T09:55:09;10.53;;;5.00;;
3747;SDS011;1889;50.058;8.688;2023-10-09T09:57:44;10.50;;;5.08;;
3747;SDS011;1889;50.058;8.688;2023-10-09T10:00:16;11.47;;;5.10;;
3747;SDS011;1889;50.058;8.688;2023-10-09T10:02:59;8.55;;;4.58;;
3747;SDS011;1889;50.058;8.688;2023-10-09T10:05:30;7.72;;;4.95;;
3747;SDS011;1889;50.058;8.688;2023-10-09T10:08:01;11.93;;;4.80;;
3747;SDS011;1889;50.058;8.688;2023-10-09T10:10:36;7.95;;;4.60;;
3747;SDS011;1889;50.058;8.688;2023-10-09T10:16:15;9.23;;;4.85;;
3747;SDS011;1889;50.058;8.688;2023-10-09T10:18:54;9.03;;;4.62;;
3747;SDS011;1889;50.058;8.688;2023-10-09T10:21:29;8.70;;;4.70;;
3747;SDS011;1889;50.058;8.688;2023-10-09T10:35:32;11.00;;;4.40;;
3747;SDS011;1889;50.058;8.688;2023-10-09T10:38:03;8.13;;;4.40;;
3747;SDS011;1889;50.058;8.688;2023-10-09T10:40:41;11.08;;;4.65;;
3747;SDS011;1889;50.058;8.688;2023-10-09T10:43:18;10.20;;;5.08;;
3747;SDS011;1889;50.058;8.688;2023-10-09T10:46:10;7.55;;;4.37;;
3747;SDS011;1889;50.058;8.688;2023-10-09T10:48:43;13.08;;;4.97;;
3747;SDS011;1889;50.058;8.688;2023-10-09T10:51:16;9.03;;;4.67;;
3747;SDS011;1889;50.058;8.688;2023-10-09T10:53:51;9.80;;;4.30;;
3747;SDS011;1889;50.058;8.688;2023-10-09T10:56:29;9.28;;;4.40;;
3747;SDS011;1889;50.058;8.688;2023-10-09T10:59:04;9.93;;;5.03;;
3747;SDS011;1889;50.058;8.688;2023-10-09T11:01:35;10.25;;;4.35;;
3747;SDS011;1889;50.058;8.688;2023-10-09T11:04:26;10.70;;;5.20;;
3747;SDS011;1889;50.058;8.688;2023-10-09T11:07:03;11.33;;;5.40;;
3747;SDS011;1889;50.058;8.688;2023-10-09T11:09:47;8.50;;;4.67;;
3747;SDS011;1889;50.058;8.688;2023-10-09T11:15:15;10.03;;;5.37;;
3747;SDS011;1889;50.058;8.688;2023-10-09T11:18:01;10.08;;;5.25;;
3747;SDS011;1889;50.058;8.688;2023-10-09T11:20:35;10.05;;;4.10;;
3747;SDS011;1889;50.058;8.688;2023-10-09T11:23:06;12.30;;;4.67;;
3747;SDS011;1889;50.058;8.688;2023-10-09T11:25:41;10.03;;;4.40;;
3747;SDS011;1889;50.058;8.688;2023-10-09T11:28:21;11.10;;;4.78;;
3747;SDS011;1889;50.058;8.688;2023-10-09T11:31:08;12.27;;;4.53;;
3747;SDS011;1889;50.058;8.688;2023-10-09T11:33:49;8.77;;;4.00;;
3747;SDS011;1889;50.058;8.688;2023-10-09T11:36:21;11.10;;;4.40;;
3747;SDS011;1889;50.058;8.688;2023-10-09T11:39:01;14.27;;;4.97;;
3747;SDS011;1889;50.058;8.688;2023-10-09T11:41:44;6.17;;;4.03;;
3747;SDS011;1889;50.058;8.688;2023-10-09T11:44:15;7.23;;;4.27;;
3747;SDS011;1889;50.058;8.688;2023-10-09T11:46:57;11.77;;;5.30;;
3747;SDS011;1889;50.058;8.688;2023-10-09T11:52:32;9.93;;;4.20;;
3747;SDS011;1889;50.058;8.688;2023-10-09T11:55:09;9.90;;;4.33;;
3747;SDS011;1889;50.058;8.688;2023-10-09T11:57:40;9.87;;;4.70;;
3747;SDS011;1889;50.058;8.688;2023-10-09T12:00:09;13.33;;;4.23;;
3747;SDS011;1889;50.058;8.688;2023-10-09T12:02:41;11.03;;;4.50;;
3747;SDS011;1889;50.058;8.688;2023-10-09T12:05:11;9.90;;;4.17;;
3747;SDS011;1889;50.058;8.688;2023-10-09T12:07:47;11.27;;;4.47;;
3747;SDS011;1889;50.058;8.688;2023-10-09T12:10:24;13.37;;;4.63;;
3747;SDS011;1889;50.058;8.688;2023-10-09T12:12:53;8.97;;;4.00;;
3747;SDS011;1889;50.058;8.688;2023-10-09T12:15:24;12.93;;;4.37;;
3747;SDS011;1889;50.058;8.688;2023-10-09T12:17:55;5.87;;;4.43;;
3747;SDS011;1889;50.058;8.688;2023-10-09T12:20:24;11.07;;;4.37;;
3747;SDS011;1889;50.058;8.688;2023-10-09T12:22:59;13.73;;;4.67;;
3747;SDS011;1889;50.058;8.688;2023-10-09T12:25:32;15.83;;;4.03;;
3747;SDS011;1889;50.058;8.688;2023-10-09T12:28:02;10.63;;;4.37;;
3747;SDS011;1889;50.058;8.688;2023-10-09T12:30:31;12.13;;;4.53;;
3747;SDS011;1889;50.058;8.688;2023-10-09T12:33:02;8.27;;;3.80;;
3747;SDS011;1889;50.058;8.688;2023-10-09T12:35:37;10.20;;;4.20;;
3747;SDS011;1889;50.058;8.688;2023-10-09T12:38:07;10.05;;;4.83;;
3747;SDS011;1889;50.058;8.688;2023-10-09T12:40:37;10.10;;;4.90;;
3747;SDS011;1889;50.058;8.688;2023-10-09T12:43:11;9.03;;;4.40;;
3747;SDS011;1889;50.058;8.688;2023-10-09T12:45:42;8.40;;;4.60;;
3747;SDS011;1889;50.058;8.688;2023-10-09T12:48:12;15.23;;;5.07;;
3747;SDS011;1889;50.058;8.688;2023-10-09T12:50:41;14.33;;;4.60;;
3747;SDS011;1889;50.058;8.688;2023-10-09T12:53:11;6.70;;;4.63;;
3747;SDS011;1889;50.058;8.688;2023-10-09T12:55:42;10.77;;;4.50;;
3747;SDS011;1889;50.058;8.688;2023-10-09T12:58:11;7.07;;;4.13;;
3747;SDS011;1889;50.058;8.688;2023-10-09T13:00:45;11.33;;;5.28;;
3747;SDS011;1889;50.058;8.688;2023-10-09T13:03:17;9.77;;;4.00;;
3747;SDS011;1889;50.058;8.688;2023-10-09T13:05:49;8.10;;;4.03;;
3747;SDS011;1889;50.058;8.688;2023-10-09T13:08:21;10.30;;;4.47;;
3747;SDS011;1889;50.058;8.688;2023-10-09T13:10:51;13.53;;;4.70;;
3747;SDS011;1889;50.058;8.688;2023-10-09T13:13:27;7.87;;;4.33;;
3747;SDS011;1889;50.058;8.688;2023-10-09T13:16:11;8.60;;;4.37;;
3747;SDS011;1889;50.058;8.688;2023-10-09T13:18:54;11.00;;;4.23;;
3747;SDS011;1889;50.058;8.688;2023-10-09T13:21:26;9.57;;;4.50;;
3747;SDS011;1889;50.058;8.688;2023-10-09T13:24:04;9.17;;;4.03;;
3747;SDS011;1889;50.058;8.688;2023-10-09T13:26:35;10.43;;;4.30;;
3747;SDS011;1889;50.058;8.688;2023-10-09T13:29:04;6.53;;;4.20;;
3747;SDS011;1889;50.058;8.688;2023-10-09T13:31:35;9.87;;;4.23;;
3747;SDS011;1889;50.058;8.688;2023-10-09T13:34:05;9.33;;;4.63;;
3747;SDS011;1889;50.058;8.688;2023-10-09T13:36:36;8.93;;;4.10;;
3747;SDS011;1889;50.058;8.688;2023-10-09T13:39:06;9.80;;;4.27;;
3747;SDS011;1889;50.058;8.688;2023-10-09T13:41:52;9.07;;;3.97;;
3747;SDS011;1889;50.058;8.688;2023-10-09T13:44:25;7.73;;;3.90;;
3747;SDS011;1889;50.058;8.688;2023-10-09T13:47:02;8.93;;;4.07;;
3747;SDS011;1889;50.058;8.688;2023-10-09T13:49:36;9.57;;;4.07;;
3747;SDS011;1889;50.058;8.688;2023-10-09T13:52:07;8.33;;;4.67;;
3747;SDS011;1889;50.058;8.688;2023-10-09T13:54:36;8.27;;;4.47;;
3747;SDS011;1889;50.058;8.688;2023-10-09T13:57:07;10.57;;;3.93;;
3747;SDS011;1889;50.058;8.688;2023-10-09T13:59:37;11.13;;;4.73;;
3747;SDS011;1889;50.058;8.688;2023-10-09T14:02:08;9.20;;;4.40;;
3747;SDS011;1889;50.058;8.688;2023-10-09T14:04:39;8.13;;;3.97;;
3747;SDS011;1889;50.058;8.688;2023-10-09T14:07:08;10.67;;;5.10;;
3747;SDS011;1889;50.058;8.688;2023-10-09T14:09:37;9.33;;;4.83;;
3747;SDS011;1889;50.058;8.688;2023-10-09T14:12:08;9.50;;;4.33;;
3747;SDS011;1889;50.058;8.688;2023-10-09T14:14:41;9.83;;;4.33;;
3747;SDS011;1889;50.058;8.688;2023-10-09T14:17:18;13.77;;;4.90;;
3747;SDS011;1889;50.058;8.688;2023-10-09T14:19:52;10.23;;;4.83;;
3747;SDS011;1889;50.058;8.688;2023-10-09T14:22:24;10.00;;;6.47;;
3747;SDS011;1889;50.058;8.688;2023-10-09T14:24:55;13.43;;;5.40;;
3747;SDS011;1889;50.058;8.688;2023-10-09T14:27:24;12.07;;;6.93;;
3747;SDS011;1889;50.058;8.688;2023-10-09T14:29:56;10.77;;;4.73;;
3747;SDS011;1889;50.058;8.688;2023-10-09T14:32:28;6.93;;;4.33;;
3747;SDS011;1889;50.058;8.688;2023-10-09T14:34:59;8.93;;;5.07;;
3747;SDS011;1889;50.058;8.688;2023-10-09T14:37:35;14.17;;;4.80;;
3747;SDS011;1889;50.058;8.688;2023-10-09T14:40:06;8.47;;;4.67;;
3747;SDS011;1889;50.058;8.688;2023-10-09T14:42:38;7.50;;;3.90;;
3747;SDS011;1889;50.058;8.688;2023-10-09T14:45:11;12.90;;;4.80;;
3747;SDS011;1889;50.058;8.688;2023-10-09T14:47:44;8.07;;;4.73;;
3747;SDS011;1889;50.058;8.688;2023-10-09T14:50:13;7.90;;;4.33;;
3747;SDS011;1889;50.058;8.688;2023-10-09T14:52:43;6.50;;;4.10;;
3747;SDS011;1889;50.058;8.688;2023-10-09T14:55:12;9.33;;;4.50;;
3747;SDS011;1889;50.058;8.688;2023-10-09T14:57:41;8.90;;;4.27;;
3747;SDS011;1889;50.058;8.688;2023-10-09T15:00:10;11.77;;;4.30;;
3747;SDS011;1889;50.058;8.688;2023-10-09T15:02:41;8.27;;;4.20;;
3747;SDS011;1889;50.058;8.688;2023-10-09T15:05:10;12.70;;;4.60;;
3747;SDS011;1889;50.058;8.688;2023-10-09T15:07:40;8.53;;;4.23;;
3747;SDS011;1889;50.058;8.688;2023-10-09T15:10:10;11.07;;;5.03;;
3747;SDS011;1889;50.058;8.688;2023-10-09T15:12:41;10.30;;;4.37;;
3747;SDS011;1889;50.058;8.688;2023-10-09T15:15:12;6.57;;;4.13;;
3747;SDS011;1889;50.058;8.688;2023-10-09T15:17:41;9.97;;;5.60;;
3747;SDS011;1889;50.058;8.688;2023-10-09T15:20:12;8.20;;;4.43;;
3747;SDS011;1889;50.058;8.688;2023-10-09T15:22:43;8.63;;;5.50;;
3747;SDS011;1889;50.058;8.688;2023-10-09T15:25:13;7.03;;;4.60;;
3747;SDS011;1889;50.058;8.688;2023-10-09T15:27:43;12.07;;;5.60;;
3747;SDS011;1889;50.058;8.688;2023-10-09T15:30:12;7.17;;;4.80;;
3747;SDS011;1889;50.058;8.688;2023-10-09T15:32:43;8.73;;;5.13;;
3747;SDS011;1889;50.058;8.688;2023-10-09T15:35:13;9.00;;;4.80;;
3747;SDS011;1889;50.058;8.688;2023-10-09T15:37:42;11.50;;;4.67;;
3747;SDS011;1889;50.058;8.688;2023-10-09T15:40:11;8.47;;;5.43;;
3747;SDS011;1889;50.058;8.688;2023-10-09T15:42:44;7.87;;;4.97;;
3747;SDS011;1889;50.058;8.688;2023-10-09T15:45:20;10.47;;;7.27;;
3747;SDS011;1889;50.058;8.688;2023-10-09T15:47:50;8.17;;;5.30;;
3747;SDS011;1889;50.058;8.688;2023-10-09T15:50:19;17.10;;;8.07;;
3747;SDS011;1889;50.058;8.688;2023-10-09T15:52:52;13.60;;;5.83;;
3747;SDS011;1889;50.058;8.688;2023-10-09T15:55:22;8.87;;;4.80;;
3747;SDS011;1889;50.058;8.688;2023-10-09T15:57:54;8.47;;;5.33;;
3747;SDS011;1889;50.058;8.688;2023-10-09T16:00:24;9.93;;;5.20;;
3747;SDS011;1889;50.058;8.688;2023-10-09T16:02:56;11.73;;;6.00;;
3747;SDS011;1889;50.058;8.688;2023-10-09T16:05:26;14.67;;;6.17;;
3747;SDS011;1889;50.058;8.688;2023-10-09T16:07:57;10.40;;;6.00;;
3747;SDS011;1889;50.058;8.688;2023-10-09T16:10:27;11.13;;;5.33;;
3747;SDS011;1889;50.058;8.688;2023-10-09T16:12:58;11.63;;;5.20;;
3747;SDS011;1889;50.058;8.688;2023-10-09T16:15:28;8.97;;;5.53;;